Philadelphia, Pennsylvania
Traffic Map
Current Weather Conditions
Philadelphia, Pennsylvania
Broken Clouds
Broken Clouds
72°
Feels Like: 72°
Wind Chill: 72° Ceiling: 25000
Heat Index: 72° Visibility: 10mi
Dew Point: 65° Wind: 6mph
Humidity: 78% Direction: 230° (SW)
Pressure: 29.99in Gusts: 0mph
Raw Report DataKPHL 010454Z 23005KT 10SM BKN250 22/18 A2999 RMK AO2 SLP154 T02220183 403110211 $
Traffic Incident Summary
Active as of:
Severity:
Category:
InformationThere was an issue retrieving the traffic information for this location. Please try a different location or try again shortly.
Advertisements
Track Severe Weather on mobile